createdAt,value
2019-03-11T00:03:49.967Z,23.6
2019-03-11T00:08:55.301Z,23.6
2019-03-11T00:14:01.023Z,23.6
2019-03-11T00:19:06.965Z,23.5
2019-03-11T00:24:12.931Z,23.6
2019-03-11T00:29:18.508Z,23.6
2019-03-11T00:34:24.269Z,23.5
2019-03-11T00:39:29.469Z,23.5
2019-03-11T00:44:35.208Z,23.5
2019-03-11T00:49:40.364Z,23.5
2019-03-11T00:54:46.169Z,23.5
2019-03-11T00:59:51.933Z,23.5
2019-03-11T01:04:57.063Z,23.5
2019-03-11T01:10:02.702Z,23.5
2019-03-11T01:15:08.991Z,23.5
2019-03-11T01:20:15.291Z,23.5
2019-03-11T01:25:21.028Z,23.5
2019-03-11T01:30:26.180Z,23.4
2019-03-11T01:40:35.734Z,23.4
2019-03-11T01:45:41.167Z,23.4
2019-03-11T01:50:46.527Z,23.4
2019-03-11T01:55:51.752Z,23.3
2019-03-11T02:00:57.381Z,23.3
2019-03-11T02:06:02.992Z,23.3
2019-03-11T02:11:08.599Z,23.3
2019-03-11T02:16:14.407Z,23.3
2019-03-11T02:21:20.546Z,23.3
2019-03-11T02:26:25.729Z,23.3
2019-03-11T02:31:31.577Z,23.3
2019-03-11T02:36:36.850Z,23.3
2019-03-11T02:41:42.763Z,23.3
2019-03-11T02:46:48.423Z,23.3
2019-03-11T02:51:54.157Z,23.3
2019-03-11T02:56:59.312Z,23.3
2019-03-11T03:02:05.015Z,23.2
2019-03-11T03:07:10.963Z,23.2
2019-03-11T03:12:16.849Z,23.2
2019-03-11T03:17:21.988Z,23.2
2019-03-11T03:22:28.100Z,23.2
2019-03-11T03:27:33.777Z,23.2
2019-03-11T03:32:39.955Z,23.2
2019-03-11T03:37:45.868Z,23.1
2019-03-11T03:42:52.243Z,23.1
2019-03-11T03:47:58.586Z,23.1
2019-03-11T03:53:04.738Z,23.1
2019-03-11T03:58:10.401Z,23.1
2019-03-11T04:03:16.012Z,23.1
2019-03-11T04:08:21.139Z,23.1
2019-03-11T04:13:26.493Z,23.1
2019-03-11T04:18:32.762Z,23.1
2019-03-11T04:23:38.513Z,23.1
2019-03-11T04:28:44.423Z,23.1
2019-03-11T04:33:50.058Z,23.1
2019-03-11T04:38:55.537Z,23
2019-03-11T04:44:01.428Z,23.1
2019-03-11T04:54:11.380Z,23.2
2019-03-11T04:59:17.019Z,23.2
2019-03-11T05:04:22.256Z,23.3
2019-03-11T05:09:28.225Z,23.3
2019-03-11T05:14:33.730Z,23.3
2019-03-11T05:19:39.873Z,23.4
2019-03-11T05:24:45.324Z,23.5
2019-03-11T05:29:51.079Z,23.6
2019-03-11T05:34:57.198Z,23.6
2019-03-11T05:40:02.833Z,23.6
2019-03-11T05:45:08.229Z,23.7
2019-03-11T05:50:13.332Z,23.8
2019-03-11T05:55:18.436Z,23.8
2019-03-11T06:00:23.698Z,23.9
2019-03-11T06:05:29.052Z,23.9
2019-03-11T06:10:34.886Z,24
2019-03-11T06:15:40.977Z,24.1
2019-03-11T06:20:46.050Z,24
2019-03-11T06:25:52.052Z,24
2019-03-11T06:30:57.488Z,24
2019-03-11T06:36:02.892Z,24
2019-03-11T06:41:08.533Z,24
2019-03-11T06:46:14.252Z,24
2019-03-11T06:51:19.424Z,24
2019-03-11T06:56:24.444Z,24
2019-03-11T07:01:29.409Z,22.6
2019-03-11T07:06:33.849Z,23.1
2019-03-11T07:11:39.925Z,23.4
2019-03-11T07:16:45.354Z,23.6
2019-03-11T07:21:51.050Z,23.7
2019-03-11T07:26:56.553Z,23.8
2019-03-11T07:32:01.620Z,23.9
2019-03-11T07:37:06.877Z,23.9
2019-03-11T07:42:11.935Z,24
2019-03-11T07:47:17.445Z,24
2019-03-11T07:52:23.498Z,24
2019-03-11T07:57:28.579Z,24
2019-03-11T08:02:33.574Z,24
2019-03-11T08:07:37.703Z,24.1
2019-03-11T08:12:41.172Z,24.1
2019-03-11T08:17:46.638Z,24.1
2019-03-11T08:22:51.831Z,24.1
2019-03-11T08:27:58.265Z,24.1
2019-03-11T08:33:03.462Z,24
2019-03-11T08:43:12.869Z,24
2019-03-11T08:48:18.095Z,24
2019-03-11T08:53:23.266Z,23.9
2019-03-11T08:58:28.448Z,23.9
2019-03-11T09:03:33.661Z,23.9
2019-03-11T09:08:39.429Z,23.9
2019-03-11T09:13:44.406Z,23.9
2019-03-11T09:18:49.450Z,23.9
2019-03-11T09:23:54.475Z,24
2019-03-11T09:29:00.150Z,23.9
2019-03-11T09:34:05.343Z,23.9
2019-03-11T09:39:09.636Z,23.9
2019-03-11T09:44:15.003Z,23.9
2019-03-11T09:49:20.348Z,23.9
2019-03-11T09:54:24.108Z,23.9
2019-03-11T09:59:29.420Z,23.8
2019-03-11T10:04:35.012Z,23.9
2019-03-11T10:09:40.302Z,24
2019-03-11T10:14:46.091Z,24
2019-03-11T10:19:51.221Z,24
2019-03-11T10:24:56.520Z,24.2
2019-03-11T10:30:01.904Z,24.2
2019-03-11T10:35:26.721Z,24.3
2019-03-11T10:40:17.356Z,24.4
2019-03-11T10:45:33.339Z,24.4
2019-03-11T10:50:28.724Z,24.4
2019-03-11T10:55:33.927Z,24.3
2019-03-11T11:00:37.813Z,24.3
2019-03-11T11:05:43.067Z,24.3
2019-03-11T11:10:48.655Z,24.3
2019-03-11T11:15:56.408Z,24.3
2019-03-11T11:21:02.219Z,24.3
2019-03-11T11:26:07.354Z,24.2
2019-03-11T11:31:12.461Z,24.2
2019-03-11T11:36:17.735Z,24.2
2019-03-11T11:41:22.451Z,24.2
2019-03-11T11:46:28.605Z,24.2
2019-03-11T11:51:34.736Z,24.2
2019-03-11T11:56:40.461Z,24.1
2019-03-11T12:01:46.529Z,24.1
2019-03-11T12:06:51.748Z,24
2019-03-11T12:11:57.413Z,24
2019-03-11T12:17:03.230Z,24
2019-03-11T12:22:09.042Z,24
2019-03-11T12:27:14.878Z,24
2019-03-11T12:32:20.540Z,24.1
2019-03-11T12:37:26.561Z,24.1
2019-03-11T12:42:31.970Z,24.1
2019-03-11T12:47:37.933Z,24.1
2019-03-11T12:52:44.280Z,24.1
2019-03-11T12:57:49.819Z,24.1
2019-03-11T13:02:55.320Z,24.1
2019-03-11T13:08:02.330Z,24.2
2019-03-11T13:13:08.041Z,24.2
2019-03-11T13:18:13.232Z,24.1
2019-03-11T13:23:19.364Z,24.1
2019-03-11T13:28:24.986Z,24.1
2019-03-11T13:33:30.255Z,24.1
2019-03-11T13:38:36.218Z,24.2
2019-03-11T13:43:41.733Z,24.2
2019-03-11T13:48:47.420Z,24.2
2019-03-11T13:53:53.541Z,24.2
2019-03-11T13:58:59.197Z,24.2
2019-03-11T14:04:07.011Z,24.2
2019-03-11T14:09:13.008Z,24.2
2019-03-11T14:14:18.856Z,23.9
2019-03-11T14:19:24.823Z,23.9
2019-03-11T14:24:30.618Z,23.9
2019-03-11T14:29:36.307Z,23.9
2019-03-11T14:34:40.501Z,23.9
2019-03-11T14:39:49.668Z,23.9
2019-03-11T14:44:55.476Z,23.9
2019-03-11T14:55:06.626Z,23.8
2019-03-11T15:00:11.952Z,23.8
2019-03-11T15:05:17.373Z,23.8
2019-03-11T15:10:23.381Z,22.9
2019-03-11T15:15:29.150Z,22.6
2019-03-11T15:20:34.532Z,23
2019-03-11T15:25:40.698Z,23.2
2019-03-11T15:30:46.516Z,23.2
2019-03-11T15:35:50.351Z,23.3
2019-03-11T15:40:55.810Z,23.4
2019-03-11T15:45:55.760Z,23.4
2019-03-11T15:51:01.186Z,23.6
2019-03-11T15:56:05.920Z,23.6
2019-03-11T16:01:11.111Z,23.6
2019-03-11T16:06:17.426Z,23.6
2019-03-11T16:11:23.399Z,23.6
2019-03-11T16:16:28.923Z,23.6
2019-03-11T16:21:36.636Z,23.6
2019-03-11T16:26:42.753Z,23.6
2019-03-11T16:31:48.928Z,23.6
2019-03-11T16:36:54.813Z,23.6
2019-03-11T16:42:00.576Z,23.6
2019-03-11T16:47:06.172Z,23.6
2019-03-11T16:52:11.335Z,23.6
2019-03-11T16:57:16.354Z,23.7
2019-03-11T17:02:21.599Z,23.7
2019-03-11T17:07:26.968Z,23.7
2019-03-11T17:12:31.987Z,23.6
2019-03-11T17:17:37.453Z,23.5
2019-03-11T17:22:42.621Z,23.5
2019-03-11T17:27:47.821Z,23.5
2019-03-11T17:32:51.603Z,23.6
2019-03-11T17:37:57.555Z,23.6
2019-03-11T17:43:06.791Z,23.6
2019-03-11T17:48:13.125Z,23.5
2019-03-11T17:53:21.939Z,23.5
2019-03-11T17:58:27.970Z,23.5
2019-03-11T18:03:33.409Z,23.5
2019-03-11T18:08:39.103Z,23.5
2019-03-11T18:13:44.202Z,23.6
2019-03-11T18:18:50.027Z,23.6
2019-03-11T18:23:55.323Z,23.6
2019-03-11T18:29:00.559Z,23.6
2019-03-11T18:34:05.807Z,23.6
2019-03-11T18:39:11.490Z,23.6
2019-03-11T18:44:16.548Z,23.6
2019-03-11T18:49:21.786Z,23.6
2019-03-11T18:54:27.322Z,23.6
2019-03-11T18:59:33.617Z,23.6
2019-03-11T19:04:38.912Z,23.6
2019-03-11T19:14:49.661Z,18.8
2019-03-11T19:19:54.766Z,19.1
2019-03-11T19:24:59.920Z,20.5
2019-03-11T19:30:05.607Z,21.3
2019-03-11T19:35:10.139Z,21.9
2019-03-11T19:45:19.679Z,22.6
2019-03-11T19:50:21.361Z,23
2019-03-11T19:55:27.082Z,23.1
2019-03-11T20:00:32.659Z,23.1
2019-03-11T20:05:38.102Z,23.2
2019-03-11T20:10:42.176Z,23.2
2019-03-11T20:15:47.510Z,23.3
2019-03-11T20:20:53.500Z,23.3
2019-03-11T20:25:59.605Z,23.4
2019-03-11T20:31:05.949Z,23.3
2019-03-11T20:36:24.897Z,23.3
2019-03-11T20:41:21.091Z,23.3
2019-03-11T20:46:27.057Z,23.4
2019-03-11T20:52:44.521Z,23.5
2019-03-11T20:57:50.269Z,23.5
2019-03-11T21:02:56.409Z,23.5
2019-03-11T21:08:00.212Z,23.5
2019-03-11T21:13:05.412Z,23.6
2019-03-11T21:18:10.604Z,23.6
2019-03-11T21:23:16.291Z,23.6
2019-03-11T21:28:21.630Z,23.6
2019-03-11T21:33:27.922Z,23.6
2019-03-11T21:38:33.071Z,23.6
2019-03-11T21:43:38.755Z,23.6
2019-03-11T21:48:43.999Z,23.6
2019-03-11T21:53:49.357Z,23.6
2019-03-11T21:58:55.290Z,23.6
2019-03-11T22:04:00.901Z,23.6
2019-03-11T22:09:06.719Z,23.6
2019-03-11T22:14:12.429Z,23.6
2019-03-11T22:19:17.395Z,23.6
2019-03-11T22:24:22.963Z,23.6
2019-03-11T22:29:28.920Z,23.6
2019-03-11T22:34:34.927Z,23.6
2019-03-11T22:39:39.895Z,23.5
2019-03-11T22:44:45.156Z,23.6
2019-03-11T22:54:54.542Z,23.6
2019-03-11T23:00:00.527Z,23.5
2019-03-11T23:05:05.854Z,23.5
2019-03-11T23:10:11.829Z,23.5
2019-03-11T23:15:17.209Z,23.5
2019-03-11T23:20:23.177Z,23.5
2019-03-11T23:25:29.140Z,23.5
2019-03-11T23:30:34.712Z,23.5
2019-03-11T23:35:39.939Z,23.5
2019-03-11T23:40:45.646Z,23.5
2019-03-11T23:45:50.904Z,23.5
2019-03-11T23:50:56.578Z,23.5
2019-03-11T23:56:02.235Z,23.5
